createdAt,value
2023-02-03T00:00:35.617Z,97
2023-02-03T00:05:35.712Z,97
2023-02-03T00:10:36.046Z,98
2023-02-03T00:15:35.385Z,98
2023-02-03T00:20:35.766Z,98
2023-02-03T00:25:35.958Z,98
2023-02-03T00:30:35.296Z,98
2023-02-03T00:35:35.323Z,98
2023-02-03T00:40:35.590Z,98
2023-02-03T00:45:35.741Z,98
2023-02-03T00:50:35.409Z,98
2023-02-03T00:55:35.487Z,98
2023-02-03T01:00:35.853Z,98
2023-02-03T01:05:35.427Z,98
2023-02-03T01:10:35.655Z,98
2023-02-03T01:15:35.091Z,98
2023-02-03T01:20:36.024Z,98
2023-02-03T01:25:35.174Z,98
2023-02-03T01:30:35.358Z,99
2023-02-03T01:35:35.415Z,99
2023-02-03T01:40:35.429Z,99
2023-02-03T01:45:35.447Z,99
2023-02-03T01:50:35.942Z,99
2023-02-03T01:55:35.113Z,99
2023-02-03T02:00:35.547Z,99
2023-02-03T02:05:35.961Z,99
2023-02-03T02:10:36.084Z,99
2023-02-03T02:15:35.490Z,99
2023-02-03T02:20:35.644Z,99
2023-02-03T02:25:35.761Z,99
2023-02-03T02:30:35.782Z,99
2023-02-03T02:35:35.385Z,99
2023-02-03T02:40:36.029Z,99
2023-02-03T02:45:35.732Z,99
2023-02-03T02:50:35.847Z,99
2023-02-03T02:55:36.039Z,99
2023-02-03T03:00:35.218Z,99
2023-02-03T03:05:35.529Z,99
2023-02-03T03:10:35.410Z,99
2023-02-03T03:15:35.796Z,99
2023-02-03T03:20:35.587Z,99
2023-02-03T03:25:35.832Z,99
2023-02-03T03:30:35.935Z,99
2023-02-03T03:35:35.725Z,99
2023-02-03T03:40:36.136Z,99
2023-02-03T03:45:35.671Z,99
2023-02-03T03:50:35.666Z,99
2023-02-03T03:55:35.357Z,99
2023-02-03T04:00:36.105Z,99
2023-02-03T04:05:35.327Z,99
2023-02-03T04:10:35.296Z,99
2023-02-03T04:15:35.474Z,99
2023-02-03T04:20:35.651Z,99
2023-02-03T04:25:35.770Z,99
2023-02-03T04:30:35.692Z,99
2023-02-03T04:35:35.971Z,99
2023-02-03T04:40:36.074Z,99
2023-02-03T04:45:36.248Z,99
2023-02-03T04:50:35.495Z,99
2023-02-03T04:55:35.501Z,99
2023-02-03T05:00:35.591Z,99
2023-02-03T05:05:35.590Z,99
2023-02-03T05:10:35.584Z,99
2023-02-03T05:15:35.472Z,99
2023-02-03T05:20:35.570Z,99
2023-02-03T05:25:35.607Z,99
2023-02-03T05:30:35.451Z,99
2023-02-03T05:35:35.584Z,99
2023-02-03T05:40:35.643Z,99
2023-02-03T05:45:35.578Z,99
2023-02-03T05:50:38.194Z,99
2023-02-03T05:55:35.893Z,99
2023-02-03T06:00:35.610Z,99
2023-02-03T06:05:35.567Z,99
2023-02-03T06:10:35.903Z,99
2023-02-03T06:15:35.843Z,99
2023-02-03T06:20:36.091Z,99
2023-02-03T06:25:36.110Z,99
2023-02-03T06:30:36.160Z,99
2023-02-03T06:35:35.395Z,99
2023-02-03T06:40:35.553Z,99
2023-02-03T06:45:35.604Z,99
2023-02-03T06:50:35.759Z,99
2023-02-03T06:55:35.746Z,99
2023-02-03T07:00:35.735Z,99
2023-02-03T07:05:35.682Z,99
2023-02-03T07:10:35.736Z,99
2023-02-03T07:15:35.943Z,99
2023-02-03T07:20:36.003Z,99
2023-02-03T07:25:36.170Z,99
2023-02-03T07:30:35.510Z,99
2023-02-03T07:35:35.470Z,99
2023-02-03T07:40:35.392Z,99
2023-02-03T07:45:35.442Z,99
2023-02-03T07:50:35.463Z,99
2023-02-03T07:55:35.381Z,99
2023-02-03T08:00:35.502Z,99
2023-02-03T08:05:35.890Z,99
2023-02-03T08:10:35.892Z,99
2023-02-03T08:15:35.932Z,99
2023-02-03T08:20:35.898Z,99
2023-02-03T08:25:36.024Z,99
2023-02-03T08:30:35.623Z,99
2023-02-03T08:35:35.602Z,99
2023-02-03T08:40:36.339Z,99
2023-02-03T08:45:35.507Z,99
2023-02-03T08:50:35.819Z,99
2023-02-03T08:55:35.898Z,99
2023-02-03T09:00:35.701Z,98
2023-02-03T09:06:35.029Z,98
2023-02-03T09:10:35.779Z,99
2023-02-03T09:15:35.935Z,99
2023-02-03T09:20:36.058Z,98
2023-02-03T09:25:36.406Z,98
2023-02-03T09:30:36.076Z,98
2023-02-03T09:35:35.616Z,98
2023-02-03T09:40:36.166Z,98
2023-02-03T09:45:35.800Z,98
2023-02-03T09:50:36.224Z,97
2023-02-03T09:55:36.363Z,97
2023-02-03T10:00:36.078Z,97
2023-02-03T10:05:35.636Z,97
2023-02-03T10:10:35.867Z,96
2023-02-03T10:15:35.952Z,96
2023-02-03T10:20:36.069Z,95
2023-02-03T10:25:36.149Z,95
2023-02-03T10:30:35.617Z,94
2023-02-03T10:35:35.935Z,94
2023-02-03T10:40:36.332Z,93
2023-02-03T10:45:36.244Z,93
2023-02-03T10:50:35.530Z,91
2023-02-03T10:55:35.662Z,91
2023-02-03T11:00:35.688Z,90
2023-02-03T11:05:35.679Z,90
2023-02-03T11:10:36.099Z,89
2023-02-03T11:15:36.311Z,89
2023-02-03T11:20:35.598Z,88
2023-02-03T11:25:35.772Z,88
2023-02-03T11:30:36.227Z,87
2023-02-03T11:35:36.239Z,87
2023-02-03T11:40:36.383Z,87
2023-02-03T11:45:36.397Z,87
2023-02-03T11:50:35.517Z,86
2023-02-03T11:55:35.533Z,86
2023-02-03T12:00:36.221Z,86
2023-02-03T12:05:35.655Z,86
2023-02-03T12:10:35.841Z,84
2023-02-03T12:15:35.846Z,84
2023-02-03T12:20:35.895Z,83
2023-02-03T12:25:35.898Z,83
2023-02-03T12:30:36.108Z,83
2023-02-03T12:35:36.272Z,83
2023-02-03T12:40:36.348Z,82
2023-02-03T12:45:36.403Z,82
2023-02-03T12:50:35.790Z,82
2023-02-03T12:55:35.794Z,82
2023-02-03T13:00:36.606Z,82
2023-02-03T13:05:35.691Z,82
2023-02-03T13:10:35.959Z,82
2023-02-03T13:15:35.957Z,82
2023-02-03T13:20:35.976Z,82
2023-02-03T13:25:36.250Z,82
2023-02-03T13:30:36.719Z,82
2023-02-03T13:35:36.006Z,82
2023-02-03T13:40:36.275Z,82
2023-02-03T13:45:36.353Z,82
2023-02-03T13:50:36.492Z,83
2023-02-03T13:55:36.518Z,83
2023-02-03T14:00:36.452Z,82
2023-02-03T14:05:35.540Z,82
2023-02-03T14:10:35.564Z,82
2023-02-03T14:15:35.611Z,82
2023-02-03T14:20:36.290Z,82
2023-02-03T14:25:36.376Z,82
2023-02-03T14:30:36.574Z,83
2023-02-03T14:35:35.706Z,83
2023-02-03T14:40:35.702Z,82
2023-02-03T14:45:35.707Z,82
2023-02-03T14:50:35.783Z,83
2023-02-03T14:55:36.061Z,83
2023-02-03T15:00:36.133Z,84
2023-02-03T15:05:36.344Z,84
2023-02-03T15:10:36.638Z,84
2023-02-03T15:15:36.461Z,84
2023-02-03T15:20:36.270Z,84
2023-02-03T15:25:36.686Z,84
2023-02-03T15:30:35.979Z,84
2023-02-03T15:35:36.299Z,84
2023-02-03T15:40:36.439Z,84
2023-02-03T15:45:36.223Z,84
2023-02-03T15:50:35.800Z,84
2023-02-03T15:55:36.109Z,84
2023-02-03T16:00:35.967Z,86
2023-02-03T16:05:35.998Z,86
2023-02-03T16:10:35.696Z,87
2023-02-03T16:15:36.016Z,87
2023-02-03T16:20:36.223Z,88
2023-02-03T16:25:36.401Z,88
2023-02-03T16:30:36.577Z,90
2023-02-03T16:35:36.543Z,90
2023-02-03T16:40:35.993Z,90
2023-02-03T16:45:36.948Z,90
2023-02-03T16:50:38.997Z,91
2023-02-03T16:55:36.106Z,91
2023-02-03T17:00:36.203Z,92
2023-02-03T17:05:36.525Z,92
2023-02-03T17:10:36.635Z,93
2023-02-03T17:15:36.586Z,93
2023-02-03T17:20:36.727Z,94
2023-02-03T17:25:35.917Z,94
2023-02-03T17:30:36.431Z,94
2023-02-03T17:35:36.689Z,94
2023-02-03T17:55:36.196Z,95
2023-02-03T18:00:35.679Z,96
2023-02-03T18:05:35.668Z,96
2023-02-03T18:10:35.709Z,96
2023-02-03T18:15:35.744Z,96
2023-02-03T18:20:35.857Z,96
2023-02-03T18:25:36.197Z,96
2023-02-03T18:30:36.394Z,96
2023-02-03T18:35:35.671Z,96
2023-02-03T18:40:36.625Z,96
2023-02-03T18:45:36.599Z,96
2023-02-03T18:50:36.672Z,96
2023-02-03T18:55:36.672Z,96
2023-02-03T19:00:35.755Z,96
2023-02-03T19:05:35.864Z,96
2023-02-03T19:10:36.089Z,96
2023-02-03T19:15:36.154Z,96
2023-02-03T19:20:36.331Z,97
2023-02-03T19:25:36.007Z,97
2023-02-03T19:30:36.112Z,97
2023-02-03T19:35:36.148Z,97
2023-02-03T19:40:36.275Z,97
2023-02-03T19:45:36.452Z,97
2023-02-03T19:50:36.422Z,97
2023-02-03T19:55:36.408Z,97
2023-02-03T20:00:35.786Z,97
2023-02-03T20:05:35.875Z,97
2023-02-03T20:10:36.267Z,97
2023-02-03T20:15:36.379Z,97
2023-02-03T20:20:36.480Z,97
2023-02-03T20:25:36.418Z,97
2023-02-03T20:30:36.848Z,97
2023-02-03T20:35:36.496Z,97
2023-02-03T20:40:36.470Z,97
2023-02-03T20:45:36.618Z,97
2023-02-03T20:50:42.238Z,96
2023-02-03T20:55:36.242Z,96
2023-02-03T21:00:36.384Z,96
2023-02-03T21:05:36.402Z,96
2023-02-03T21:10:36.804Z,96
2023-02-03T21:15:36.031Z,96
2023-02-03T21:20:36.238Z,96
2023-02-03T21:25:36.228Z,96
2023-02-03T21:30:36.101Z,96
2023-02-03T21:35:36.267Z,96
2023-02-03T21:40:36.408Z,96
2023-02-03T21:45:36.361Z,96
2023-02-03T21:50:36.702Z,95
2023-02-03T21:55:36.765Z,95
2023-02-03T22:00:36.053Z,95
2023-02-03T22:05:36.059Z,95
2023-02-03T22:10:36.212Z,95
2023-02-03T22:15:36.171Z,95
2023-02-03T22:20:36.276Z,95
2023-02-03T22:25:36.549Z,95
2023-02-03T22:30:36.400Z,95
2023-02-03T22:35:36.769Z,95
2023-02-03T22:40:35.918Z,95
2023-02-03T22:45:35.917Z,95
2023-02-03T22:50:36.761Z,95
2023-02-03T22:55:36.098Z,95
2023-02-03T23:00:36.175Z,95
2023-02-03T23:05:36.194Z,95
2023-02-03T23:10:36.406Z,94
2023-02-03T23:15:36.377Z,94
2023-02-03T23:20:36.760Z,94
2023-02-03T23:25:35.904Z,94
2023-02-03T23:30:36.574Z,94
2023-02-03T23:35:36.544Z,94
2023-02-03T23:40:36.636Z,94
2023-02-03T23:45:36.751Z,94
2023-02-03T23:55:36.637Z,94
